Buoy 41991

sailwx.info

Track history (hours):
 
Tides and Currents Weather Stations Pressure Air Temp Water Temp Dewpoint Dewpoint Depression Visibility Wind Speed Wind Dir Waves Ship Positions

Drifting buoy 41991

Last reported at 2016-May-01 18:09 UTC. Time now 2016-May-01 19:17 UTC.
Position N 29°37' W 046°52'.

Water temperature 22.5 ° C

Date/timePositionNaut miles runAvg speedWind from/ knotsBaromVisibWave heightAir tempDewpointWater temp
2016-May-01 18:09N 29°37' W 046°52'0 0.0 22.5
2016-May-01 18:07N 29°37' W 046°52'1 0.5 22.5
2016-May-01 16:26N 29°38' W 046°52'1 0.6 22.6
2016-May-01 14:39N 29°39' W 046°53'0 0.0 22.5
2016-May-01 13:54N 29°39' W 046°53'1 0.8 22.4
2016-May-01 13:00N 29°40' W 046°53'1 0.5 22.0
2016-May-01 11:24N 29°40' W 046°54'0 0.5 21.8
2016-May-01 10:38N 29°40' W 046°53'0 0.9 21.8
2016-May-01 10:20N 29°40' W 046°54'0 0.4 21.8
2016-May-01 09:48N 29°40' W 046°54'0 1.4 21.7
2016-May-01 09:41N 29°40' W 046°54'0 0.0 21.7
2016-May-01 08:44N 29°40' W 046°54'0 0.6 21.7
2016-May-01 07:56N 29°41' W 046°54'0 0.0
2016-May-01 07:02N 29°41' W 046°54'0 0.0 21.7
2016-May-01 06:48N 29°41' W 046°54'0 0.5 21.7
2016-May-01 06:42N 29°41' W 046°54'0 8.7 21.7
2016-May-01 06:39N 29°41' W 046°54'1 0.3 21.7
2016-May-01 01:29N 29°43' W 046°54'1 0.5 21.8
2016-May-01 00:31N 29°43' W 046°53'0 0.0 21.8
2016-Apr-30 23:50N 29°43' W 046°53'0 0.0 21.8
2016-Apr-30 23:47N 29°43' W 046°53'1 0.4 21.8
2016-Apr-30 21:33N 29°44' W 046°53'0 0.3 21.7
2016-Apr-30 21:17N 29°44' W 046°53'0 0.5 21.7
2016-Apr-30 20:41N 29°44' W 046°53'0 0.0 21.7
2016-Apr-30 20:36N 29°44' W 046°53'0 0.6 21.7
2016-Apr-30 19:50N 29°45' W 046°53'0 0.0 21.7
2016-Apr-30 19:39N 29°45' W 046°53'1 0.4 21.6
2016-Apr-30 18:19N 29°45' W 046°53'1 9.3 21.6
2016-Apr-30 18:15N 29°46' W 046°53'1 0.2 21.6
2016-Apr-30 14:59N 29°47' W 046°53'0 0.2 21.4
2016-Apr-30 14:09N 29°47' W 046°53'0 0.3 21.4
2016-Apr-30 13:23N 29°47' W 046°53'1 0.6 21.3
2016-Apr-30 12:24N 29°47' W 046°53'0 0.2 21.2
2016-Apr-30 11:04N 29°47' W 046°53'0 0.3 21.2
2016-Apr-30 09:54N 29°47' W 046°53'0 2.4 21.2
2016-Apr-30 09:50N 29°47' W 046°53'0 0.1 21.2
2016-Apr-30 09:22N 29°47' W 046°53'0 0.1 21.2
2016-Apr-30 07:44N 29°47' W 046°53'0 0.7 21.2
2016-Apr-30 07:33N 29°47' W 046°53'0 0.4 21.2
2016-Apr-30 06:54N 29°47' W 046°53'1 0.2 21.2
2016-Apr-30 00:55N 29°48' W 046°51'0 6.2 21.3
2016-Apr-30 00:52N 29°48' W 046°52'0 0.1 21.3
2016-Apr-30 00:09N 29°48' W 046°52'1 1.7 21.3
2016-Apr-29 23:37N 29°48' W 046°51'0 0.0 21.3
2016-Apr-29 23:19N 29°48' W 046°51'1 0.7 21.3
2016-Apr-29 21:32N 29°48' W 046°49'0 0.0 21.3
2016-Apr-29 21:29N 29°48' W 046°49'1 1.6 21.3
2016-Apr-29 21:05N 29°48' W 046°49'0 4.0 21.3
2016-Apr-29 20:58N 29°49' W 046°49'1 0.6 21.3
2016-Apr-29 19:51N 29°49' W 046°48'1 1.6 21.4
2016-Apr-29 19:18N 29°49' W 046°48'0 0.0 21.4
2016-Apr-29 18:32N 29°49' W 046°48'2 0.5 21.4
2016-Apr-29 14:31N 29°52' W 046°48'0 0.4 21.2
2016-Apr-29 13:43N 29°52' W 046°47'129.0 21.2
2016-Apr-29 13:40N 29°52' W 046°49'1 1.2 21.2
2016-Apr-29 12:44N 29°52' W 046°48'0 0.0 21.1
2016-Apr-29 12:00N 29°52' W 046°48'0 2.0 21.1
2016-Apr-29 11:54N 29°52' W 046°48'0 0.0 21.1
2016-Apr-29 11:22N 29°52' W 046°48'0 0.1
2016-Apr-29 10:04N 29°52' W 046°48'0 0.9 21.1
2016-Apr-29 09:50N 29°52' W 046°48'0 0.0 21.1
2016-Apr-29 08:06N 29°52' W 046°48'1 0.8 21.0
2016-Apr-29 07:09N 29°51' W 046°47'2 0.4 21.1
2016-Apr-29 01:20N 29°52' W 046°45'0 3.9 21.1
2016-Apr-29 01:14N 29°52' W 046°45'0 0.0 21.1
2016-Apr-29 00:31N 29°52' W 046°45'1 0.6 21.1
2016-Apr-28 22:52N 29°53' W 046°44'1 0.6 21.1
2016-Apr-28 21:40N 29°53' W 046°43'0 2.9
2016-Apr-28 21:35N 29°53' W 046°43'0 0.0 21.2
2016-Apr-28 21:31N 29°53' W 046°43'1 0.7 21.2
2016-Apr-28 20:02N 29°54' W 046°42'1 5.4 21.2
2016-Apr-28 19:48N 29°55' W 046°42'0 0.0 21.2
2016-Apr-28 18:42N 29°55' W 046°42'4 2.1 21.2
2016-Apr-28 16:55N 29°59' W 046°41'1 0.3 21.3
2016-Apr-28 14:02N 29°60' W 046°42'0 3.6 21.2
2016-Apr-28 13:55N 30°00' W 046°42'1 0.4 21.2
2016-Apr-28 10:23N 30°01' W 046°43'1 4.4 21.1
2016-Apr-28 10:15N 30°01' W 046°42'1 4.8 21.1
2016-Apr-28 10:06N 30°01' W 046°43'0 0.0 21.1
2016-Apr-28 08:43N 30°01' W 046°43'0 0.0 21.1
2016-Apr-28 08:39N 30°01' W 046°43'0 0.2 21.1
2016-Apr-28 07:22N 30°02' W 046°43'0 0.0 21.1
2016-Apr-28 06:54N 30°02' W 046°43'4 0.8 21.1
2016-Apr-28 01:35N 30°04' W 046°39'0 0.0 21.1
2016-Apr-28 00:47N 30°04' W 046°39'1 1.4 21.1
2016-Apr-27 23:53N 30°05' W 046°38'0 0.1 21.1
2016-Apr-27 23:01N 30°05' W 046°38'1 0.9 21.1
2016-Apr-27 21:52N 30°06' W 046°37'2 1.3 21.1
2016-Apr-27 20:15N 30°07' W 046°36'0 0.0 21.2
2016-Apr-27 20:07N 30°07' W 046°36'245.2 21.2
2016-Apr-27 20:05N 30°09' W 046°35'0 0.0 21.2
2016-Apr-27 18:55N 30°09' W 046°35'2 4.4 21.2
2016-Apr-27 18:32N 30°11' W 046°35'1 0.4 21.2
2016-Apr-27 15:32N 30°12' W 046°35'1 0.7 21.3
2016-Apr-27 14:24N 30°13' W 046°35'128.1 21.3
2016-Apr-27 14:21N 30°14' W 046°35'0 0.0 21.3
2016-Apr-27 13:36N 30°14' W 046°35'0 0.0 21.3
2016-Apr-27 12:42N 30°14' W 046°35'1 0.9 21.3
2016-Apr-27 11:47N 30°15' W 046°35'0 0.0 21.3
2016-Apr-27 10:57N 30°15' W 046°35'0 0.0
2016-Apr-27 10:43N 30°15' W 046°35'0 0.0 21.3
2016-Apr-27 10:39N 30°15' W 046°35'0 1.4 21.4
2016-Apr-27 10:32N 30°15' W 046°35'0 1.1 21.4
2016-Apr-27 10:23N 30°15' W 046°35'0 0.0 21.4
2016-Apr-27 09:08N 30°15' W 046°35'0 0.0 21.4
2016-Apr-27 09:05N 30°15' W 046°35'0 0.0 21.4
2016-Apr-27 09:01N 30°15' W 046°35'1 2.1 21.4
2016-Apr-27 08:44N 30°15' W 046°35'0 0.0 21.4
2016-Apr-27 07:34N 30°15' W 046°35'0 0.0 21.4
2016-Apr-27 07:29N 30°15' W 046°35'013.4 21.4
2016-Apr-27 07:27N 30°16' W 046°35'0 0.0 21.4
2016-Apr-27 05:51N 30°16' W 046°35'426.9 21.4
2016-Apr-27 05:43N 30°18' W 046°31'0 0.0 21.4
2016-Apr-27 02:00N 30°18' W 046°31'110.3 21.5
2016-Apr-27 01:55N 30°19' W 046°31'2 2.6
2016-Apr-27 01:07N 30°20' W 046°29'0 0.0 21.5
2016-Apr-27 00:22N 30°20' W 046°29'0 1.0 21.5
2016-Apr-27 00:19N 30°20' W 046°29'2 3.1 21.5
2016-Apr-26 23:32N 30°22' W 046°30'1 0.4 21.5
2016-Apr-26 21:54N 30°23' W 046°30'2 1.8 21.6
2016-Apr-26 20:41N 30°25' W 046°31'0 0.0 21.7
2016-Apr-26 20:27N 30°25' W 046°31'0 2.6 21.7
2016-Apr-26 20:16N 30°25' W 046°31'111.9 21.7
2016-Apr-26 20:09N 30°26' W 046°31'0 0.0 21.7
2016-Apr-26 19:05N 30°26' W 046°31'445.8 21.7
2016-Apr-26 19:00N 30°30' W 046°33'0 0.0 21.7
2016-Apr-26 18:44N 30°30' W 046°33'0 0.0 21.7
2016-Apr-26 17:27N 30°30' W 046°33'0 0.0 21.7
2016-Apr-26 17:18N 30°30' W 046°33'2 1.3 21.7
2016-Apr-26 15:43N 30°31' W 046°36'0 0.0 21.7
2016-Apr-26 14:43N 30°31' W 046°36'0 0.0 21.7
2016-Apr-26 13:55N 30°31' W 046°36'1 1.7 21.7
2016-Apr-26 13:05N 30°31' W 046°37'0 1.0 21.7
2016-Apr-26 12:54N 30°31' W 046°37'1 0.7 21.7
2016-Apr-26 11:18N 30°32' W 046°38'0 0.0 21.7
2016-Apr-26 11:03N 30°32' W 046°38'0 0.8 21.7
2016-Apr-26 10:44N 30°31' W 046°38'0 2.3 21.7
2016-Apr-26 10:40N 30°31' W 046°38'1 1.0 21.7
2016-Apr-26 09:40N 30°31' W 046°39'0 0.0 21.7
2016-Apr-26 09:36N 30°31' W 046°39'1 0.4 21.7
2016-Apr-26 08:02N 30°31' W 046°40'0 0.7 21.7
2016-Apr-26 07:44N 30°31' W 046°40'0 4.7 21.7
2016-Apr-26 07:40N 30°31' W 046°40'1 0.6 21.7
2016-Apr-26 06:02N 30°30' W 046°39'2 0.6 21.7
2016-Apr-26 02:17N 30°28' W 046°39'0 0.5 21.7
2016-Apr-26 01:27N 30°28' W 046°38'0 0.4 21.7
2016-Apr-26 00:36N 30°28' W 046°38'0 0.0 21.7
2016-Apr-25 23:53N 30°28' W 046°38'1 0.7 21.7
2016-Apr-25 23:03N 30°28' W 046°38'0 0.2 21.7
2016-Apr-25 22:15N 30°28' W 046°37'0 2.9 21.7
2016-Apr-25 22:10N 30°28' W 046°37'0 0.2 21.7
2016-Apr-25 21:05N 30°28' W 046°37'0 0.7 21.7
2016-Apr-25 20:39N 30°28' W 046°38'0 2.7 21.7
2016-Apr-25 20:31N 30°28' W 046°37'1 0.6 21.7
2016-Apr-25 19:15N 30°28' W 046°38'0 0.0 21.7
2016-Apr-25 19:09N 30°28' W 046°38'0 0.0 21.7
2016-Apr-25 17:38N 30°28' W 046°38'0 0.2 21.7
2016-Apr-25 15:55N 30°28' W 046°38'0 0.3 21.7
2016-Apr-25 15:02N 30°28' W 046°38'0 0.5 21.7
2016-Apr-25 14:12N 30°28' W 046°38'0 0.0 21.7
2016-Apr-25 13:25N 30°28' W 046°38'1 0.4 21.7
2016-Apr-25 11:38N 30°28' W 046°38'0 0.4 21.7
2016-Apr-25 10:54N 30°28' W 046°38'0 4.3 21.7
2016-Apr-25 10:48N 30°28' W 046°39'0 0.3 21.7
2016-Apr-25 10:07N 30°28' W 046°39'0 4.8 21.7
2016-Apr-25 10:04N 30°28' W 046°38'0 0.0 21.7
2016-Apr-25 09:46N 30°28' W 046°38'0 0.6 21.7
2016-Apr-25 09:41N 30°28' W 046°38'0 0.1 21.7
2016-Apr-25 08:24N 30°28' W 046°38'1 1.0 21.7
2016-Apr-25 07:55N 30°28' W 046°39'0 5.2 21.7
2016-Apr-25 07:50N 30°28' W 046°38'0 0.0 21.7
2016-Apr-25 06:49N 30°28' W 046°38'0 0.0 21.7
2016-Apr-25 06:17N 30°28' W 046°38'2 0.3 21.7
2016-Apr-25 01:03N 30°30' W 046°37'0 2.4 21.7
2016-Apr-25 00:54N 30°30' W 046°38'0 0.0 21.7
2016-Apr-25 00:15N 30°30' W 046°38'1 0.7 21.7
2016-Apr-24 23:23N 30°30' W 046°37'0 0.9 21.7
2016-Apr-24 22:55N 30°31' W 046°37'0 0.6 21.7
2016-Apr-24 22:26N 30°31' W 046°37'1 0.9 21.7
2016-Apr-24 21:31N 30°31' W 046°37'1 1.4 21.7
2016-Apr-24 21:08N 30°32' W 046°37'0 0.0 21.8
2016-Apr-24 20:50N 30°32' W 046°37'0 2.6 21.8
2016-Apr-24 20:45N 30°32' W 046°37'1 9.0 21.8
2016-Apr-24 20:41N 30°33' W 046°37'0 0.0 21.8
2016-Apr-24 19:49N 30°33' W 046°37'214.5 21.8
2016-Apr-24 19:42N 30°34' W 046°38'0 0.0 21.8
2016-Apr-24 19:26N 30°34' W 046°38'0 0.0 21.8
2016-Apr-24 19:07N 30°34' W 046°38'0 0.0 21.8
2016-Apr-24 17:46N 30°34' W 046°38'3 0.9 21.8
2016-Apr-24 14:36N 30°36' W 046°40'0 0.0 21.7
2016-Apr-24 13:47N 30°36' W 046°40'2 1.0 21.7
2016-Apr-24 11:59N 30°37' W 046°42'0 0.0 21.7
2016-Apr-24 11:05N 30°37' W 046°42'1 1.3 21.7
2016-Apr-24 10:40N 30°36' W 046°42'1 1.5 21.7
2016-Apr-24 10:06N 30°37' W 046°43'0 0.0 21.7
2016-Apr-24 09:27N 30°37' W 046°43'0 0.2 21.7
2016-Apr-24 09:04N 30°37' W 046°43'0 0.8 21.7
2016-Apr-24 08:55N 30°37' W 046°43'0 0.8 21.7
2016-Apr-24 08:26N 30°37' W 046°43'0 0.0 21.7
2016-Apr-24 08:05N 30°37' W 046°43'0 0.3 21.7
2016-Apr-24 07:42N 30°37' W 046°43'0 5.3 21.7
2016-Apr-24 07:38N 30°37' W 046°43'0 0.0 21.7
2016-Apr-24 07:22N 30°37' W 046°43'0 0.4 21.7
2016-Apr-24 06:29N 30°37' W 046°43'1 4.5 21.7
2016-Apr-24 06:18N 30°38' W 046°44'2 0.3 21.7
2016-Apr-24 01:24N 30°39' W 046°45'0 3.3 21.7
2016-Apr-24 01:17N 30°39' W 046°46'1 0.5 21.7
2016-Apr-23 23:28N 30°40' W 046°47'0 0.5 21.7
2016-Apr-23 22:54N 30°40' W 046°47'0 0.0 21.7
2016-Apr-23 22:38N 30°40' W 046°47'0 0.2 21.7
2016-Apr-23 21:55N 30°40' W 046°47'115.0 21.7
2016-Apr-23 21:52N 30°40' W 046°48'0 0.2 21.7
2016-Apr-23 20:55N 30°40' W 046°47'132.2 21.7
2016-Apr-23 20:53N 30°40' W 046°49'0 0.0 21.7
2016-Apr-23 20:15N 30°40' W 046°49'1 1.0 21.7
2016-Apr-23 19:20N 30°41' W 046°49'1 0.9 21.7
2016-Apr-23 18:02N 30°41' W 046°51'0 0.8 21.7
2016-Apr-23 17:58N 30°41' W 046°51'5 1.3 21.7
2016-Apr-23 14:06N 30°42' W 046°56'0 0.0 21.7
2016-Apr-23 13:20N 30°42' W 046°56'119.4 21.7
2016-Apr-23 13:16N 30°42' W 046°58'1 1.1 21.7
2016-Apr-23 12:17N 30°42' W 046°59'1 1.0 21.7
2016-Apr-23 11:17N 30°42' W 046°60'0 0.5 21.7
2016-Apr-23 11:10N 30°42' W 046°60'0 0.0 21.7
2016-Apr-23 10:39N 30°42' W 046°60'1 0.7 21.7
2016-Apr-23 09:40N 30°42' W 047°00'0 0.5 21.7
2016-Apr-23 09:32N 30°42' W 047°00'1 0.8 21.7
2016-Apr-23 08:13N 30°41' W 047°01'1 2.8 21.6
2016-Apr-23 07:55N 30°42' W 047°02'110.9 21.6
2016-Apr-23 07:52N 30°41' W 047°02'1 0.4 21.6
2016-Apr-23 06:33N 30°41' W 047°01'2 1.3 21.6
2016-Apr-23 04:48N 30°41' W 047°04'0 0.1 21.6
2016-Apr-23 01:37N 30°42' W 047°04'0 0.0 21.7
2016-Apr-23 00:53N 30°42' W 047°04'1 8.5
2016-Apr-23 00:49N 30°42' W 047°05'0 0.0 21.7
2016-Apr-23 00:06N 30°42' W 047°05'0 0.0 21.7
2016-Apr-23 00:01N 30°42' W 047°05'0 3.7 21.7
2016-Apr-22 23:56N 30°42' W 047°05'0 0.0 21.7
2016-Apr-22 23:16N 30°42' W 047°05'0 2.1 21.7
2016-Apr-22 23:07N 30°42' W 047°05'1 0.4 21.7
2016-Apr-22 21:10N 30°43' W 047°06'0 0.7 21.7
2016-Apr-22 20:39N 30°43' W 047°07'0 0.4 21.8
2016-Apr-22 19:32N 30°43' W 047°07'1 0.6 21.8
2016-Apr-22 18:10N 30°44' W 047°07'1 0.7 21.8
2016-Apr-22 16:31N 30°45' W 047°08'2 0.9 21.8
2016-Apr-22 14:23N 30°46' W 047°10'0 0.2 21.8
2016-Apr-22 13:38N 30°46' W 047°10'1 0.7 21.8
2016-Apr-22 12:47N 30°46' W 047°11'1 0.8 21.8
2016-Apr-22 11:53N 30°45' W 047°12'120.4 21.7
2016-Apr-22 11:51N 30°46' W 047°12'0 0.0 21.7
2016-Apr-22 11:03N 30°46' W 047°12'0 0.2 21.7
2016-Apr-22 10:03N 30°46' W 047°12'1 0.9 21.7
2016-Apr-22 09:22N 30°45' W 047°12'0 0.0 21.7
2016-Apr-22 08:25N 30°45' W 047°12'0 0.6 21.8
2016-Apr-22 08:17N 30°45' W 047°13'0 0.8 21.8
2016-Apr-22 07:40N 30°45' W 047°12'0 0.6 21.8
2016-Apr-22 06:50N 30°46' W 047°12'1 0.2 21.8
2016-Apr-22 02:03N 30°47' W 047°12'1 1.1 21.9
2016-Apr-22 01:15N 30°48' W 047°12'0 4.2 21.9
2016-Apr-22 01:09N 30°48' W 047°12'0 0.0 21.9
2016-Apr-22 00:27N 30°48' W 047°12'0 2.3 21.9
2016-Apr-22 00:23N 30°48' W 047°12'1 1.0 21.9
2016-Apr-21 23:37N 30°48' W 047°13'0 0.5 22.0
2016-Apr-21 22:50N 30°48' W 047°13'1 0.8 22.0
2016-Apr-21 21:25N 30°50' W 047°13'0 0.6 22.0
2016-Apr-21 21:05N 30°50' W 047°13'111.2 22.0
2016-Apr-21 20:58N 30°51' W 047°14'0 0.0 22.0
2016-Apr-21 19:40N 30°51' W 047°14'0 1.8 22.1
2016-Apr-21 19:25N 30°51' W 047°14'0 5.2 22.0
2016-Apr-21 19:22N 30°51' W 047°14'2 1.6 22.0
2016-Apr-21 18:16N 30°52' W 047°16'   22.1
Track history (hours):
 
Tides and Currents Weather Stations Pressure Air Temp Water Temp Dewpoint Dewpoint Depression Visibility Wind Speed Wind Dir Waves Ship Positions

Drifting buoy 41991

Last reported at 2016-May-01 18:09 UTC. Time now 2016-May-01 19:17 UTC.
Position N 29°37' W 046°52'.

Water temperature 22.5 ° C

Date/timePositionNaut miles runAvg speedWind from/ knotsBaromVisibWave heightAir tempDewpointWater temp
2016-May-01 18:09N 29°37' W 046°52'0 0.0 22.5
2016-May-01 18:07N 29°37' W 046°52'1 0.5 22.5
2016-May-01 16:26N 29°38' W 046°52'1 0.6 22.6
2016-May-01 14:39N 29°39' W 046°53'0 0.0 22.5
2016-May-01 13:54N 29°39' W 046°53'1 0.8 22.4
2016-May-01 13:00N 29°40' W 046°53'1 0.5 22.0
2016-May-01 11:24N 29°40' W 046°54'0 0.5 21.8
2016-May-01 10:38N 29°40' W 046°53'0 0.9 21.8
2016-May-01 10:20N 29°40' W 046°54'0 0.4 21.8
2016-May-01 09:48N 29°40' W 046°54'0 1.4 21.7
2016-May-01 09:41N 29°40' W 046°54'0 0.0 21.7
2016-May-01 08:44N 29°40' W 046°54'0 0.6 21.7
2016-May-01 07:56N 29°41' W 046°54'0 0.0
2016-May-01 07:02N 29°41' W 046°54'0 0.0 21.7
2016-May-01 06:48N 29°41' W 046°54'0 0.5 21.7
2016-May-01 06:42N 29°41' W 046°54'0 8.7 21.7
2016-May-01 06:39N 29°41' W 046°54'1 0.3 21.7
2016-May-01 01:29N 29°43' W 046°54'1 0.5 21.8
2016-May-01 00:31N 29°43' W 046°53'0 0.0 21.8
2016-Apr-30 23:50N 29°43' W 046°53'0 0.0 21.8
2016-Apr-30 23:47N 29°43' W 046°53'1 0.4 21.8
2016-Apr-30 21:33N 29°44' W 046°53'0 0.3 21.7
2016-Apr-30 21:17N 29°44' W 046°53'0 0.5 21.7
2016-Apr-30 20:41N 29°44' W 046°53'0 0.0 21.7
2016-Apr-30 20:36N 29°44' W 046°53'0 0.6 21.7
2016-Apr-30 19:50N 29°45' W 046°53'0 0.0 21.7
2016-Apr-30 19:39N 29°45' W 046°53'1 0.4 21.6
2016-Apr-30 18:19N 29°45' W 046°53'1 9.3 21.6
2016-Apr-30 18:15N 29°46' W 046°53'1 0.2 21.6
2016-Apr-30 14:59N 29°47' W 046°53'0 0.2 21.4
2016-Apr-30 14:09N 29°47' W 046°53'0 0.3 21.4
2016-Apr-30 13:23N 29°47' W 046°53'1 0.6 21.3
2016-Apr-30 12:24N 29°47' W 046°53'0 0.2 21.2
2016-Apr-30 11:04N 29°47' W 046°53'0 0.3 21.2
2016-Apr-30 09:54N 29°47' W 046°53'0 2.4 21.2
2016-Apr-30 09:50N 29°47' W 046°53'0 0.1 21.2
2016-Apr-30 09:22N 29°47' W 046°53'0 0.1 21.2
2016-Apr-30 07:44N 29°47' W 046°53'0 0.7 21.2
2016-Apr-30 07:33N 29°47' W 046°53'0 0.4 21.2
2016-Apr-30 06:54N 29°47' W 046°53'1 0.2 21.2
2016-Apr-30 00:55N 29°48' W 046°51'0 6.2 21.3
2016-Apr-30 00:52N 29°48' W 046°52'0 0.1 21.3
2016-Apr-30 00:09N 29°48' W 046°52'1 1.7 21.3
2016-Apr-29 23:37N 29°48' W 046°51'0 0.0 21.3
2016-Apr-29 23:19N 29°48' W 046°51'1 0.7 21.3
2016-Apr-29 21:32N 29°48' W 046°49'0 0.0 21.3
2016-Apr-29 21:29N 29°48' W 046°49'1 1.6 21.3
2016-Apr-29 21:05N 29°48' W 046°49'0 4.0 21.3
2016-Apr-29 20:58N 29°49' W 046°49'1 0.6 21.3
2016-Apr-29 19:51N 29°49' W 046°48'1 1.6 21.4
2016-Apr-29 19:18N 29°49' W 046°48'0 0.0 21.4
2016-Apr-29 18:32N 29°49' W 046°48'2 0.5 21.4
2016-Apr-29 14:31N 29°52' W 046°48'0 0.4 21.2
2016-Apr-29 13:43N 29°52' W 046°47'129.0 21.2
2016-Apr-29 13:40N 29°52' W 046°49'1 1.2 21.2
2016-Apr-29 12:44N 29°52' W 046°48'0 0.0 21.1
2016-Apr-29 12:00N 29°52' W 046°48'0 2.0 21.1
2016-Apr-29 11:54N 29°52' W 046°48'0 0.0 21.1
2016-Apr-29 11:22N 29°52' W 046°48'0 0.1
2016-Apr-29 10:04N 29°52' W 046°48'0 0.9 21.1
2016-Apr-29 09:50N 29°52' W 046°48'0 0.0 21.1
2016-Apr-29 08:06N 29°52' W 046°48'1 0.8 21.0
2016-Apr-29 07:09N 29°51' W 046°47'2 0.4 21.1
2016-Apr-29 01:20N 29°52' W 046°45'0 3.9 21.1
2016-Apr-29 01:14N 29°52' W 046°45'0 0.0 21.1
2016-Apr-29 00:31N 29°52' W 046°45'1 0.6 21.1
2016-Apr-28 22:52N 29°53' W 046°44'1 0.6 21.1
2016-Apr-28 21:40N 29°53' W 046°43'0 2.9
2016-Apr-28 21:35N 29°53' W 046°43'0 0.0 21.2
2016-Apr-28 21:31N 29°53' W 046°43'1 0.7 21.2
2016-Apr-28 20:02N 29°54' W 046°42'1 5.4 21.2
2016-Apr-28 19:48N 29°55' W 046°42'0 0.0 21.2
2016-Apr-28 18:42N 29°55' W 046°42'4 2.1 21.2
2016-Apr-28 16:55N 29°59' W 046°41'1 0.3 21.3
2016-Apr-28 14:02N 29°60' W 046°42'0 3.6 21.2
2016-Apr-28 13:55N 30°00' W 046°42'1 0.4 21.2
2016-Apr-28 10:23N 30°01' W 046°43'1 4.4 21.1
2016-Apr-28 10:15N 30°01' W 046°42'1 4.8 21.1
2016-Apr-28 10:06N 30°01' W 046°43'0 0.0 21.1
2016-Apr-28 08:43N 30°01' W 046°43'0 0.0 21.1
2016-Apr-28 08:39N 30°01' W 046°43'0 0.2 21.1
2016-Apr-28 07:22N 30°02' W 046°43'0 0.0 21.1
2016-Apr-28 06:54N 30°02' W 046°43'4 0.8 21.1
2016-Apr-28 01:35N 30°04' W 046°39'0 0.0 21.1
2016-Apr-28 00:47N 30°04' W 046°39'1 1.4 21.1
2016-Apr-27 23:53N 30°05' W 046°38'0 0.1 21.1
2016-Apr-27 23:01N 30°05' W 046°38'1 0.9 21.1
2016-Apr-27 21:52N 30°06' W 046°37'2 1.3 21.1
2016-Apr-27 20:15N 30°07' W 046°36'0 0.0 21.2
2016-Apr-27 20:07N 30°07' W 046°36'245.2 21.2
2016-Apr-27 20:05N 30°09' W 046°35'0 0.0 21.2
2016-Apr-27 18:55N 30°09' W 046°35'2 4.4 21.2
2016-Apr-27 18:32N 30°11' W 046°35'1 0.4 21.2
2016-Apr-27 15:32N 30°12' W 046°35'1 0.7 21.3
2016-Apr-27 14:24N 30°13' W 046°35'128.1 21.3
2016-Apr-27 14:21N 30°14' W 046°35'0 0.0 21.3
2016-Apr-27 13:36N 30°14' W 046°35'0 0.0 21.3
2016-Apr-27 12:42N 30°14' W 046°35'1 0.9 21.3
2016-Apr-27 11:47N 30°15' W 046°35'0 0.0 21.3
2016-Apr-27 10:57N 30°15' W 046°35'0 0.0
2016-Apr-27 10:43N 30°15' W 046°35'0 0.0 21.3
2016-Apr-27 10:39N 30°15' W 046°35'0 1.4 21.4
2016-Apr-27 10:32N 30°15' W 046°35'0 1.1 21.4
2016-Apr-27 10:23N 30°15' W 046°35'0 0.0 21.4
2016-Apr-27 09:08N 30°15' W 046°35'0 0.0 21.4
2016-Apr-27 09:05N 30°15' W 046°35'0 0.0 21.4
2016-Apr-27 09:01N 30°15' W 046°35'1 2.1 21.4
2016-Apr-27 08:44N 30°15' W 046°35'0 0.0 21.4
2016-Apr-27 07:34N 30°15' W 046°35'0 0.0 21.4
2016-Apr-27 07:29N 30°15' W 046°35'013.4 21.4
2016-Apr-27 07:27N 30°16' W 046°35'0 0.0 21.4
2016-Apr-27 05:51N 30°16' W 046°35'426.9 21.4
2016-Apr-27 05:43N 30°18' W 046°31'0 0.0 21.4
2016-Apr-27 02:00N 30°18' W 046°31'110.3 21.5
2016-Apr-27 01:55N 30°19' W 046°31'2 2.6
2016-Apr-27 01:07N 30°20' W 046°29'0 0.0 21.5
2016-Apr-27 00:22N 30°20' W 046°29'0 1.0 21.5
2016-Apr-27 00:19N 30°20' W 046°29'2 3.1 21.5
2016-Apr-26 23:32N 30°22' W 046°30'1 0.4 21.5
2016-Apr-26 21:54N 30°23' W 046°30'2 1.8 21.6
2016-Apr-26 20:41N 30°25' W 046°31'0 0.0 21.7
2016-Apr-26 20:27N 30°25' W 046°31'0 2.6 21.7
2016-Apr-26 20:16N 30°25' W 046°31'111.9 21.7
2016-Apr-26 20:09N 30°26' W 046°31'0 0.0 21.7
2016-Apr-26 19:05N 30°26' W 046°31'445.8 21.7
2016-Apr-26 19:00N 30°30' W 046°33'0 0.0 21.7
2016-Apr-26 18:44N 30°30' W 046°33'0 0.0 21.7
2016-Apr-26 17:27N 30°30' W 046°33'0 0.0 21.7
2016-Apr-26 17:18N 30°30' W 046°33'2 1.3 21.7
2016-Apr-26 15:43N 30°31' W 046°36'0 0.0 21.7
2016-Apr-26 14:43N 30°31' W 046°36'0 0.0 21.7
2016-Apr-26 13:55N 30°31' W 046°36'1 1.7 21.7
2016-Apr-26 13:05N 30°31' W 046°37'0 1.0 21.7
2016-Apr-26 12:54N 30°31' W 046°37'1 0.7 21.7
2016-Apr-26 11:18N 30°32' W 046°38'0 0.0 21.7
2016-Apr-26 11:03N 30°32' W 046°38'0 0.8 21.7
2016-Apr-26 10:44N 30°31' W 046°38'0 2.3 21.7
2016-Apr-26 10:40N 30°31' W 046°38'1 1.0 21.7
2016-Apr-26 09:40N 30°31' W 046°39'0 0.0 21.7
2016-Apr-26 09:36N 30°31' W 046°39'1 0.4 21.7
2016-Apr-26 08:02N 30°31' W 046°40'0 0.7 21.7
2016-Apr-26 07:44N 30°31' W 046°40'0 4.7 21.7
2016-Apr-26 07:40N 30°31' W 046°40'1 0.6 21.7
2016-Apr-26 06:02N 30°30' W 046°39'2 0.6 21.7
2016-Apr-26 02:17N 30°28' W 046°39'0 0.5 21.7
2016-Apr-26 01:27N 30°28' W 046°38'0 0.4 21.7
2016-Apr-26 00:36N 30°28' W 046°38'0 0.0 21.7
2016-Apr-25 23:53N 30°28' W 046°38'1 0.7 21.7
2016-Apr-25 23:03N 30°28' W 046°38'0 0.2 21.7
2016-Apr-25 22:15N 30°28' W 046°37'0 2.9 21.7
2016-Apr-25 22:10N 30°28' W 046°37'0 0.2 21.7
2016-Apr-25 21:05N 30°28' W 046°37'0 0.7 21.7
2016-Apr-25 20:39N 30°28' W 046°38'0 2.7 21.7
2016-Apr-25 20:31N 30°28' W 046°37'1 0.6 21.7
2016-Apr-25 19:15N 30°28' W 046°38'0 0.0 21.7
2016-Apr-25 19:09N 30°28' W 046°38'0 0.0 21.7
2016-Apr-25 17:38N 30°28' W 046°38'0 0.2 21.7
2016-Apr-25 15:55N 30°28' W 046°38'0 0.3 21.7
2016-Apr-25 15:02N 30°28' W 046°38'0 0.5 21.7
2016-Apr-25 14:12N 30°28' W 046°38'0 0.0 21.7
2016-Apr-25 13:25N 30°28' W 046°38'1 0.4 21.7
2016-Apr-25 11:38N 30°28' W 046°38'0 0.4 21.7
2016-Apr-25 10:54N 30°28' W 046°38'0 4.3 21.7
2016-Apr-25 10:48N 30°28' W 046°39'0 0.3 21.7
2016-Apr-25 10:07N 30°28' W 046°39'0 4.8 21.7
2016-Apr-25 10:04N 30°28' W 046°38'0 0.0 21.7
2016-Apr-25 09:46N 30°28' W 046°38'0 0.6 21.7
2016-Apr-25 09:41N 30°28' W 046°38'0 0.1 21.7
2016-Apr-25 08:24N 30°28' W 046°38'1 1.0 21.7
2016-Apr-25 07:55N 30°28' W 046°39'0 5.2 21.7
2016-Apr-25 07:50N 30°28' W 046°38'0 0.0 21.7
2016-Apr-25 06:49N 30°28' W 046°38'0 0.0 21.7
2016-Apr-25 06:17N 30°28' W 046°38'2 0.3 21.7
2016-Apr-25 01:03N 30°30' W 046°37'0 2.4 21.7
2016-Apr-25 00:54N 30°30' W 046°38'0 0.0 21.7
2016-Apr-25 00:15N 30°30' W 046°38'1 0.7 21.7
2016-Apr-24 23:23N 30°30' W 046°37'0 0.9 21.7
2016-Apr-24 22:55N 30°31' W 046°37'0 0.6 21.7
2016-Apr-24 22:26N 30°31' W 046°37'1 0.9 21.7
2016-Apr-24 21:31N 30°31' W 046°37'1 1.4 21.7
2016-Apr-24 21:08N 30°32' W 046°37'0 0.0 21.8
2016-Apr-24 20:50N 30°32' W 046°37'0 2.6 21.8
2016-Apr-24 20:45N 30°32' W 046°37'1 9.0 21.8
2016-Apr-24 20:41N 30°33' W 046°37'0 0.0 21.8
2016-Apr-24 19:49N 30°33' W 046°37'214.5 21.8
2016-Apr-24 19:42N 30°34' W 046°38'0 0.0 21.8
2016-Apr-24 19:26N 30°34' W 046°38'0 0.0 21.8
2016-Apr-24 19:07N 30°34' W 046°38'0 0.0 21.8
2016-Apr-24 17:46N 30°34' W 046°38'3 0.9 21.8
2016-Apr-24 14:36N 30°36' W 046°40'0 0.0 21.7
2016-Apr-24 13:47N 30°36' W 046°40'2 1.0 21.7
2016-Apr-24 11:59N 30°37' W 046°42'0 0.0 21.7
2016-Apr-24 11:05N 30°37' W 046°42'1 1.3 21.7
2016-Apr-24 10:40N 30°36' W 046°42'1 1.5 21.7
2016-Apr-24 10:06N 30°37' W 046°43'0 0.0 21.7
2016-Apr-24 09:27N 30°37' W 046°43'0 0.2 21.7
2016-Apr-24 09:04N 30°37' W 046°43'0 0.8 21.7
2016-Apr-24 08:55N 30°37' W 046°43'0 0.8 21.7
2016-Apr-24 08:26N 30°37' W 046°43'0 0.0 21.7
2016-Apr-24 08:05N 30°37' W 046°43'0 0.3 21.7
2016-Apr-24 07:42N 30°37' W 046°43'0 5.3 21.7
2016-Apr-24 07:38N 30°37' W 046°43'0 0.0 21.7
2016-Apr-24 07:22N 30°37' W 046°43'0 0.4 21.7
2016-Apr-24 06:29N 30°37' W 046°43'1 4.5 21.7
2016-Apr-24 06:18N 30°38' W 046°44'2 0.3 21.7
2016-Apr-24 01:24N 30°39' W 046°45'0 3.3 21.7
2016-Apr-24 01:17N 30°39' W 046°46'1 0.5 21.7
2016-Apr-23 23:28N 30°40' W 046°47'0 0.5 21.7
2016-Apr-23 22:54N 30°40' W 046°47'0 0.0 21.7
2016-Apr-23 22:38N 30°40' W 046°47'0 0.2 21.7
2016-Apr-23 21:55N 30°40' W 046°47'115.0 21.7
2016-Apr-23 21:52N 30°40' W 046°48'0 0.2 21.7
2016-Apr-23 20:55N 30°40' W 046°47'132.2 21.7
2016-Apr-23 20:53N 30°40' W 046°49'0 0.0 21.7
2016-Apr-23 20:15N 30°40' W 046°49'1 1.0 21.7
2016-Apr-23 19:20N 30°41' W 046°49'1 0.9 21.7
2016-Apr-23 18:02N 30°41' W 046°51'0 0.8 21.7
2016-Apr-23 17:58N 30°41' W 046°51'5 1.3 21.7
2016-Apr-23 14:06N 30°42' W 046°56'0 0.0 21.7
2016-Apr-23 13:20N 30°42' W 046°56'119.4 21.7
2016-Apr-23 13:16N 30°42' W 046°58'1 1.1 21.7
2016-Apr-23 12:17N 30°42' W 046°59'1 1.0 21.7
2016-Apr-23 11:17N 30°42' W 046°60'0 0.5 21.7
2016-Apr-23 11:10N 30°42' W 046°60'0 0.0 21.7
2016-Apr-23 10:39N 30°42' W 046°60'1 0.7 21.7
2016-Apr-23 09:40N 30°42' W 047°00'0 0.5 21.7
2016-Apr-23 09:32N 30°42' W 047°00'1 0.8 21.7
2016-Apr-23 08:13N 30°41' W 047°01'1 2.8 21.6
2016-Apr-23 07:55N 30°42' W 047°02'110.9 21.6
2016-Apr-23 07:52N 30°41' W 047°02'1 0.4 21.6
2016-Apr-23 06:33N 30°41' W 047°01'2 1.3 21.6
2016-Apr-23 04:48N 30°41' W 047°04'0 0.1 21.6
2016-Apr-23 01:37N 30°42' W 047°04'0 0.0 21.7
2016-Apr-23 00:53N 30°42' W 047°04'1 8.5
2016-Apr-23 00:49N 30°42' W 047°05'0 0.0 21.7
2016-Apr-23 00:06N 30°42' W 047°05'0 0.0 21.7
2016-Apr-23 00:01N 30°42' W 047°05'0 3.7 21.7
2016-Apr-22 23:56N 30°42' W 047°05'0 0.0 21.7
2016-Apr-22 23:16N 30°42' W 047°05'0 2.1 21.7
2016-Apr-22 23:07N 30°42' W 047°05'1 0.4 21.7
2016-Apr-22 21:10N 30°43' W 047°06'0 0.7 21.7
2016-Apr-22 20:39N 30°43' W 047°07'0 0.4 21.8
2016-Apr-22 19:32N 30°43' W 047°07'1 0.6 21.8
2016-Apr-22 18:10N 30°44' W 047°07'1 0.7 21.8
2016-Apr-22 16:31N 30°45' W 047°08'2 0.9 21.8
2016-Apr-22 14:23N 30°46' W 047°10'0 0.2 21.8
2016-Apr-22 13:38N 30°46' W 047°10'1 0.7 21.8
2016-Apr-22 12:47N 30°46' W 047°11'1 0.8 21.8
2016-Apr-22 11:53N 30°45' W 047°12'120.4 21.7
2016-Apr-22 11:51N 30°46' W 047°12'0 0.0 21.7
2016-Apr-22 11:03N 30°46' W 047°12'0 0.2 21.7
2016-Apr-22 10:03N 30°46' W 047°12'1 0.9 21.7
2016-Apr-22 09:22N 30°45' W 047°12'0 0.0 21.7
2016-Apr-22 08:25N 30°45' W 047°12'0 0.6 21.8
2016-Apr-22 08:17N 30°45' W 047°13'0 0.8 21.8
2016-Apr-22 07:40N 30°45' W 047°12'0 0.6 21.8
2016-Apr-22 06:50N 30°46' W 047°12'1 0.2 21.8
2016-Apr-22 02:03N 30°47' W 047°12'1 1.1 21.9
2016-Apr-22 01:15N 30°48' W 047°12'0 4.2 21.9
2016-Apr-22 01:09N 30°48' W 047°12'0 0.0 21.9
2016-Apr-22 00:27N 30°48' W 047°12'0 2.3 21.9
2016-Apr-22 00:23N 30°48' W 047°12'1 1.0 21.9
2016-Apr-21 23:37N 30°48' W 047°13'0 0.5 22.0
2016-Apr-21 22:50N 30°48' W 047°13'1 0.8 22.0
2016-Apr-21 21:25N 30°50' W 047°13'0 0.6 22.0
2016-Apr-21 21:05N 30°50' W 047°13'111.2 22.0
2016-Apr-21 20:58N 30°51' W 047°14'0 0.0 22.0
2016-Apr-21 19:40N 30°51' W 047°14'0 1.8 22.1
2016-Apr-21 19:25N 30°51' W 047°14'0 5.2 22.0
2016-Apr-21 19:22N 30°51' W 047°14'2 1.6 22.0
2016-Apr-21 18:16N 30°52' W 047°16'   22.1

Dump ship's entire track history